sensor_id;sensor_type;location;lat;lon;timestamp;temperature;humidity
12634;DHT22;6382;48.614;8.880;2023-04-24T00:01:14;10.00;99.90
12634;DHT22;6382;48.614;8.880;2023-04-24T00:03:41;10.00;99.90
12634;DHT22;6382;48.614;8.880;2023-04-24T00:06:08;10.00;99.90
12634;DHT22;6382;48.614;8.880;2023-04-24T00:08:35;10.00;99.90
12634;DHT22;6382;48.614;8.880;2023-04-24T00:11:02;10.00;99.90
12634;DHT22;6382;48.614;8.880;2023-04-24T00:13:29;10.00;99.90
12634;DHT22;6382;48.614;8.880;2023-04-24T00:15:56;10.00;99.90
12634;DHT22;6382;48.614;8.880;2023-04-24T00:18:22;10.00;99.90
12634;DHT22;6382;48.614;8.880;2023-04-24T00:20:49;10.10;99.90
12634;DHT22;6382;48.614;8.880;2023-04-24T00:23:16;10.00;99.90
12634;DHT22;6382;48.614;8.880;2023-04-24T00:25:43;10.10;99.90
12634;DHT22;6382;48.614;8.880;2023-04-24T00:28:10;10.00;99.90
12634;DHT22;6382;48.614;8.880;2023-04-24T00:30:36;10.10;99.90
12634;DHT22;6382;48.614;8.880;2023-04-24T00:33:03;10.10;99.90
12634;DHT22;6382;48.614;8.880;2023-04-24T00:35:30;10.10;99.90
12634;DHT22;6382;48.614;8.880;2023-04-24T00:37:57;10.10;99.90
12634;DHT22;6382;48.614;8.880;2023-04-24T00:40:24;10.10;99.90
12634;DHT22;6382;48.614;8.880;2023-04-24T00:42:51;10.10;99.90
12634;DHT22;6382;48.614;8.880;2023-04-24T00:45:18;10.10;99.90
12634;DHT22;6382;48.614;8.880;2023-04-24T00:47:46;10.10;99.90
12634;DHT22;6382;48.614;8.880;2023-04-24T00:50:14;10.10;99.90
12634;DHT22;6382;48.614;8.880;2023-04-24T00:52:41;10.00;99.90
12634;DHT22;6382;48.614;8.880;2023-04-24T00:55:08;10.00;99.90
12634;DHT22;6382;48.614;8.880;2023-04-24T00:57:35;10.00;99.90
12634;DHT22;6382;48.614;8.880;2023-04-24T01:00:03;10.00;99.90
12634;DHT22;6382;48.614;8.880;2023-04-24T01:02:32;10.00;99.90
12634;DHT22;6382;48.614;8.880;2023-04-24T01:05:01;10.00;99.90
12634;DHT22;6382;48.614;8.880;2023-04-24T01:07:28;10.00;99.90
12634;DHT22;6382;48.614;8.880;2023-04-24T01:09:55;10.00;99.90
12634;DHT22;6382;48.614;8.880;2023-04-24T01:12:21;10.00;99.90
12634;DHT22;6382;48.614;8.880;2023-04-24T01:14:48;10.00;99.90
12634;DHT22;6382;48.614;8.880;2023-04-24T01:17:15;10.00;99.90
12634;DHT22;6382;48.614;8.880;2023-04-24T01:19:42;11.40;99.90
12634;DHT22;6382;48.614;8.880;2023-04-24T01:22:14;11.30;99.90
12634;DHT22;6382;48.614;8.880;2023-04-24T01:24:41;9.90;99.90
12634;DHT22;6382;48.614;8.880;2023-04-24T01:27:09;9.90;99.90
12634;DHT22;6382;48.614;8.880;2023-04-24T01:29:36;9.90;99.90
12634;DHT22;6382;48.614;8.880;2023-04-24T01:32:03;10.00;99.90
12634;DHT22;6382;48.614;8.880;2023-04-24T01:34:30;10.00;99.90
12634;DHT22;6382;48.614;8.880;2023-04-24T01:36:57;9.90;99.90
12634;DHT22;6382;48.614;8.880;2023-04-24T01:39:24;10.00;99.90
12634;DHT22;6382;48.614;8.880;2023-04-24T01:41:52;10.00;99.90
12634;DHT22;6382;48.614;8.880;2023-04-24T01:44:20;10.00;99.90
12634;DHT22;6382;48.614;8.880;2023-04-24T01:46:48;10.00;99.90
12634;DHT22;6382;48.614;8.880;2023-04-24T01:49:15;10.00;99.90
12634;DHT22;6382;48.614;8.880;2023-04-24T01:51:42;9.90;99.90
12634;DHT22;6382;48.614;8.880;2023-04-24T01:54:09;9.90;99.90
12634;DHT22;6382;48.614;8.880;2023-04-24T01:56:35;9.90;99.90
12634;DHT22;6382;48.614;8.880;2023-04-24T01:59:03;9.90;99.90
12634;DHT22;6382;48.614;8.880;2023-04-24T02:01:36;9.90;99.90
12634;DHT22;6382;48.614;8.880;2023-04-24T02:04:06;9.80;99.90
12634;DHT22;6382;48.614;8.880;2023-04-24T02:06:34;9.70;99.90
12634;DHT22;6382;48.614;8.880;2023-04-24T02:09:00;9.70;99.90
12634;DHT22;6382;48.614;8.880;2023-04-24T02:11:29;9.70;99.90
12634;DHT22;6382;48.614;8.880;2023-04-24T02:13:56;9.60;99.90
12634;DHT22;6382;48.614;8.880;2023-04-24T02:16:22;9.70;99.90
12634;DHT22;6382;48.614;8.880;2023-04-24T02:18:49;9.60;99.90
12634;DHT22;6382;48.614;8.880;2023-04-24T02:21:16;9.60;99.90
12634;DHT22;6382;48.614;8.880;2023-04-24T02:23:43;9.60;99.90
12634;DHT22;6382;48.614;8.880;2023-04-24T02:26:09;9.60;99.90
12634;DHT22;6382;48.614;8.880;2023-04-24T02:28:36;9.70;99.90
12634;DHT22;6382;48.614;8.880;2023-04-24T02:31:03;9.70;99.90
12634;DHT22;6382;48.614;8.880;2023-04-24T02:33:30;9.70;99.90
12634;DHT22;6382;48.614;8.880;2023-04-24T02:35:56;9.70;99.90
12634;DHT22;6382;48.614;8.880;2023-04-24T02:38:25;9.70;99.90
12634;DHT22;6382;48.614;8.880;2023-04-24T02:40:52;10.00;99.90
12634;DHT22;6382;48.614;8.880;2023-04-24T02:43:19;9.70;99.90
12634;DHT22;6382;48.614;8.880;2023-04-24T02:45:46;9.70;99.90
12634;DHT22;6382;48.614;8.880;2023-04-24T02:48:13;9.70;99.90
12634;DHT22;6382;48.614;8.880;2023-04-24T02:50:40;9.70;99.90
12634;DHT22;6382;48.614;8.880;2023-04-24T02:53:06;9.70;99.90
12634;DHT22;6382;48.614;8.880;2023-04-24T02:55:33;9.60;99.90
12634;DHT22;6382;48.614;8.880;2023-04-24T02:58:00;9.60;99.90
12634;DHT22;6382;48.614;8.880;2023-04-24T03:00:26;9.70;99.90
12634;DHT22;6382;48.614;8.880;2023-04-24T03:02:53;9.60;99.90
12634;DHT22;6382;48.614;8.880;2023-04-24T03:05:20;9.60;99.90
12634;DHT22;6382;48.614;8.880;2023-04-24T03:07:47;9.60;99.90
12634;DHT22;6382;48.614;8.880;2023-04-24T03:10:13;9.60;99.90
12634;DHT22;6382;48.614;8.880;2023-04-24T03:12:40;9.60;99.90
12634;DHT22;6382;48.614;8.880;2023-04-24T03:15:08;9.60;99.90
12634;DHT22;6382;48.614;8.880;2023-04-24T03:17:35;9.50;99.90
12634;DHT22;6382;48.614;8.880;2023-04-24T03:20:02;9.50;99.90
12634;DHT22;6382;48.614;8.880;2023-04-24T03:22:29;9.50;99.90
12634;DHT22;6382;48.614;8.880;2023-04-24T03:24:56;9.50;99.90
12634;DHT22;6382;48.614;8.880;2023-04-24T03:27:23;9.50;99.90
12634;DHT22;6382;48.614;8.880;2023-04-24T03:29:50;10.30;99.90
12634;DHT22;6382;48.614;8.880;2023-04-24T03:32:23;9.40;99.90
12634;DHT22;6382;48.614;8.880;2023-04-24T03:34:50;9.30;99.90
12634;DHT22;6382;48.614;8.880;2023-04-24T03:37:16;9.20;99.90
12634;DHT22;6382;48.614;8.880;2023-04-24T03:39:43;9.20;99.90
12634;DHT22;6382;48.614;8.880;2023-04-24T03:42:11;9.20;99.90
12634;DHT22;6382;48.614;8.880;2023-04-24T03:44:37;9.10;99.90
12634;DHT22;6382;48.614;8.880;2023-04-24T03:47:04;9.20;99.90
12634;DHT22;6382;48.614;8.880;2023-04-24T03:49:31;9.10;99.90
12634;DHT22;6382;48.614;8.880;2023-04-24T03:51:58;9.10;99.90
12634;DHT22;6382;48.614;8.880;2023-04-24T03:54:24;9.10;99.90
12634;DHT22;6382;48.614;8.880;2023-04-24T03:56:51;9.10;99.90
12634;DHT22;6382;48.614;8.880;2023-04-24T03:59:18;10.80;99.90
12634;DHT22;6382;48.614;8.880;2023-04-24T04:01:45;9.80;99.90
12634;DHT22;6382;48.614;8.880;2023-04-24T04:04:11;9.10;99.90
12634;DHT22;6382;48.614;8.880;2023-04-24T04:06:38;9.80;99.90
12634;DHT22;6382;48.614;8.880;2023-04-24T04:09:05;9.10;99.90
12634;DHT22;6382;48.614;8.880;2023-04-24T04:11:32;10.60;99.90
12634;DHT22;6382;48.614;8.880;2023-04-24T04:13:58;9.20;99.90
12634;DHT22;6382;48.614;8.880;2023-04-24T04:16:25;9.20;99.90
12634;DHT22;6382;48.614;8.880;2023-04-24T04:18:52;9.30;99.90
12634;DHT22;6382;48.614;8.880;2023-04-24T04:21:19;9.30;99.90
12634;DHT22;6382;48.614;8.880;2023-04-24T04:23:46;9.20;99.90
12634;DHT22;6382;48.614;8.880;2023-04-24T04:26:12;9.40;99.90
12634;DHT22;6382;48.614;8.880;2023-04-24T04:28:39;9.20;99.90
12634;DHT22;6382;48.614;8.880;2023-04-24T04:31:06;9.20;99.90
12634;DHT22;6382;48.614;8.880;2023-04-24T04:33:34;9.10;99.90
12634;DHT22;6382;48.614;8.880;2023-04-24T04:36:02;9.00;99.90
12634;DHT22;6382;48.614;8.880;2023-04-24T04:38:30;8.70;99.90
12634;DHT22;6382;48.614;8.880;2023-04-24T04:40:57;8.60;99.90
12634;DHT22;6382;48.614;8.880;2023-04-24T04:43:24;8.80;99.90
12634;DHT22;6382;48.614;8.880;2023-04-24T04:45:51;8.60;99.90
12634;DHT22;6382;48.614;8.880;2023-04-24T04:48:18;8.60;99.90
12634;DHT22;6382;48.614;8.880;2023-04-24T04:50:45;8.60;99.90
12634;DHT22;6382;48.614;8.880;2023-04-24T04:53:12;8.60;99.90
12634;DHT22;6382;48.614;8.880;2023-04-24T04:55:39;8.60;99.90
12634;DHT22;6382;48.614;8.880;2023-04-24T04:58:06;8.60;99.90
12634;DHT22;6382;48.614;8.880;2023-04-24T05:00:33;11.60;99.90
12634;DHT22;6382;48.614;8.880;2023-04-24T05:03:02;8.70;99.90
12634;DHT22;6382;48.614;8.880;2023-04-24T05:05:45;8.60;99.90
12634;DHT22;6382;48.614;8.880;2023-04-24T05:08:12;8.70;99.90
12634;DHT22;6382;48.614;8.880;2023-04-24T05:10:52;8.70;99.90
12634;DHT22;6382;48.614;8.880;2023-04-24T05:13:19;8.70;99.90
12634;DHT22;6382;48.614;8.880;2023-04-24T05:16:01;8.70;99.90
12634;DHT22;6382;48.614;8.880;2023-04-24T05:18:28;8.70;99.90
12634;DHT22;6382;48.614;8.880;2023-04-24T05:20:54;9.60;99.90
12634;DHT22;6382;48.614;8.880;2023-04-24T05:23:22;8.80;99.90
12634;DHT22;6382;48.614;8.880;2023-04-24T05:25:48;8.80;99.90
12634;DHT22;6382;48.614;8.880;2023-04-24T05:28:15;8.80;99.90
12634;DHT22;6382;48.614;8.880;2023-04-24T05:30:42;8.80;99.90
12634;DHT22;6382;48.614;8.880;2023-04-24T05:33:08;8.90;99.90
12634;DHT22;6382;48.614;8.880;2023-04-24T05:35:36;8.90;99.90
12634;DHT22;6382;48.614;8.880;2023-04-24T05:38:03;10.20;99.90
12634;DHT22;6382;48.614;8.880;2023-04-24T05:40:30;9.00;99.90
12634;DHT22;6382;48.614;8.880;2023-04-24T05:42:57;8.90;99.90
12634;DHT22;6382;48.614;8.880;2023-04-24T05:45:23;8.90;99.90
12634;DHT22;6382;48.614;8.880;2023-04-24T05:47:50;8.90;99.90
12634;DHT22;6382;48.614;8.880;2023-04-24T05:50:19;8.90;99.90
12634;DHT22;6382;48.614;8.880;2023-04-24T05:58:02;8.90;99.90
12634;DHT22;6382;48.614;8.880;2023-04-24T06:00:29;8.90;99.90
12634;DHT22;6382;48.614;8.880;2023-04-24T06:02:55;8.90;99.90
12634;DHT22;6382;48.614;8.880;2023-04-24T06:05:26;9.00;99.90
12634;DHT22;6382;48.614;8.880;2023-04-24T06:07:53;9.10;99.90
12634;DHT22;6382;48.614;8.880;2023-04-24T06:10:20;9.30;99.90
12634;DHT22;6382;48.614;8.880;2023-04-24T06:12:47;9.40;99.90
12634;DHT22;6382;48.614;8.880;2023-04-24T06:15:14;12.10;99.90
12634;DHT22;6382;48.614;8.880;2023-04-24T06:17:41;9.70;99.90
12634;DHT22;6382;48.614;8.880;2023-04-24T06:20:08;9.80;99.90
12634;DHT22;6382;48.614;8.880;2023-04-24T06:22:35;10.00;99.90
12634;DHT22;6382;48.614;8.880;2023-04-24T06:25:02;10.80;99.90
12634;DHT22;6382;48.614;8.880;2023-04-24T06:27:30;10.30;99.90
12634;DHT22;6382;48.614;8.880;2023-04-24T06:29:57;10.50;99.90
12634;DHT22;6382;48.614;8.880;2023-04-24T06:32:24;10.60;99.90
12634;DHT22;6382;48.614;8.880;2023-04-24T06:34:51;10.80;99.90
12634;DHT22;6382;48.614;8.880;2023-04-24T06:37:19;10.80;99.90
12634;DHT22;6382;48.614;8.880;2023-04-24T06:39:47;10.90;99.90
12634;DHT22;6382;48.614;8.880;2023-04-24T06:42:14;10.90;99.90
12634;DHT22;6382;48.614;8.880;2023-04-24T06:44:41;10.90;99.90
12634;DHT22;6382;48.614;8.880;2023-04-24T06:47:08;12.30;99.90
12634;DHT22;6382;48.614;8.880;2023-04-24T06:49:37;10.70;99.90
12634;DHT22;6382;48.614;8.880;2023-04-24T06:52:04;10.70;99.90
12634;DHT22;6382;48.614;8.880;2023-04-24T06:54:31;10.60;99.90
12634;DHT22;6382;48.614;8.880;2023-04-24T06:56:59;10.60;99.90
12634;DHT22;6382;48.614;8.880;2023-04-24T06:59:27;10.30;99.90
12634;DHT22;6382;48.614;8.880;2023-04-24T07:01:54;10.00;99.90
12634;DHT22;6382;48.614;8.880;2023-04-24T07:04:21;9.80;99.90
12634;DHT22;6382;48.614;8.880;2023-04-24T07:06:49;10.30;99.90
12634;DHT22;6382;48.614;8.880;2023-04-24T07:09:17;9.50;99.90
12634;DHT22;6382;48.614;8.880;2023-04-24T07:11:48;9.50;99.90
12634;DHT22;6382;48.614;8.880;2023-04-24T07:14:15;9.70;99.90
12634;DHT22;6382;48.614;8.880;2023-04-24T07:16:42;9.60;99.90
12634;DHT22;6382;48.614;8.880;2023-04-24T07:19:09;9.80;99.90
12634;DHT22;6382;48.614;8.880;2023-04-24T07:21:36;10.50;99.90
12634;DHT22;6382;48.614;8.880;2023-04-24T07:24:03;10.10;99.90
12634;DHT22;6382;48.614;8.880;2023-04-24T07:26:30;10.20;99.90
12634;DHT22;6382;48.614;8.880;2023-04-24T07:28:57;10.20;99.90
12634;DHT22;6382;48.614;8.880;2023-04-24T07:31:25;10.20;99.90
12634;DHT22;6382;48.614;8.880;2023-04-24T07:33:52;10.30;99.90
12634;DHT22;6382;48.614;8.880;2023-04-24T07:36:19;10.30;99.90
12634;DHT22;6382;48.614;8.880;2023-04-24T07:38:46;10.20;99.90
12634;DHT22;6382;48.614;8.880;2023-04-24T07:41:13;10.30;99.90
12634;DHT22;6382;48.614;8.880;2023-04-24T07:43:40;10.20;99.90
12634;DHT22;6382;48.614;8.880;2023-04-24T07:46:08;10.20;99.90
12634;DHT22;6382;48.614;8.880;2023-04-24T07:48:35;10.20;99.90
12634;DHT22;6382;48.614;8.880;2023-04-24T07:51:01;10.20;99.90
12634;DHT22;6382;48.614;8.880;2023-04-24T07:53:28;10.20;99.90
12634;DHT22;6382;48.614;8.880;2023-04-24T07:55:55;10.30;99.90
12634;DHT22;6382;48.614;8.880;2023-04-24T07:58:22;10.40;99.90
12634;DHT22;6382;48.614;8.880;2023-04-24T08:00:49;10.30;99.90
12634;DHT22;6382;48.614;8.880;2023-04-24T08:03:16;10.20;99.90
12634;DHT22;6382;48.614;8.880;2023-04-24T08:05:46;10.20;99.90
12634;DHT22;6382;48.614;8.880;2023-04-24T08:08:13;10.10;99.90
12634;DHT22;6382;48.614;8.880;2023-04-24T08:10:40;10.00;99.90
12634;DHT22;6382;48.614;8.880;2023-04-24T08:13:07;10.00;99.90
12634;DHT22;6382;48.614;8.880;2023-04-24T08:15:34;10.30;99.90
12634;DHT22;6382;48.614;8.880;2023-04-24T08:18:01;10.20;99.90
12634;DHT22;6382;48.614;8.880;2023-04-24T08:20:28;12.50;99.90
12634;DHT22;6382;48.614;8.880;2023-04-24T08:22:55;10.40;99.90
12634;DHT22;6382;48.614;8.880;2023-04-24T08:25:22;10.50;99.90
12634;DHT22;6382;48.614;8.880;2023-04-24T08:27:51;10.60;99.90
12634;DHT22;6382;48.614;8.880;2023-04-24T08:30:18;10.90;99.90
12634;DHT22;6382;48.614;8.880;2023-04-24T08:32:44;11.00;99.90
12634;DHT22;6382;48.614;8.880;2023-04-24T08:35:12;11.00;99.90
12634;DHT22;6382;48.614;8.880;2023-04-24T08:37:38;10.90;99.90
12634;DHT22;6382;48.614;8.880;2023-04-24T08:40:06;10.80;99.90
12634;DHT22;6382;48.614;8.880;2023-04-24T08:42:37;10.80;99.90
12634;DHT22;6382;48.614;8.880;2023-04-24T08:45:04;10.80;99.90
12634;DHT22;6382;48.614;8.880;2023-04-24T08:47:31;10.70;99.90
12634;DHT22;6382;48.614;8.880;2023-04-24T08:50:02;10.70;99.90
12634;DHT22;6382;48.614;8.880;2023-04-24T08:52:29;10.70;99.90
12634;DHT22;6382;48.614;8.880;2023-04-24T08:54:56;10.80;99.90
12634;DHT22;6382;48.614;8.880;2023-04-24T08:57:22;10.80;99.90
12634;DHT22;6382;48.614;8.880;2023-04-24T08:59:51;10.60;99.90
12634;DHT22;6382;48.614;8.880;2023-04-24T09:02:18;11.30;99.90
12634;DHT22;6382;48.614;8.880;2023-04-24T09:04:46;10.60;99.90
12634;DHT22;6382;48.614;8.880;2023-04-24T09:07:14;10.60;99.90
12634;DHT22;6382;48.614;8.880;2023-04-24T09:09:43;10.70;99.90
12634;DHT22;6382;48.614;8.880;2023-04-24T09:12:11;10.70;99.90
12634;DHT22;6382;48.614;8.880;2023-04-24T09:14:38;10.80;99.90
12634;DHT22;6382;48.614;8.880;2023-04-24T09:17:09;10.80;99.90
12634;DHT22;6382;48.614;8.880;2023-04-24T09:19:35;10.90;99.90
12634;DHT22;6382;48.614;8.880;2023-04-24T09:22:06;10.80;99.90
12634;DHT22;6382;48.614;8.880;2023-04-24T09:24:33;10.90;99.90
12634;DHT22;6382;48.614;8.880;2023-04-24T09:27:00;10.90;99.90
12634;DHT22;6382;48.614;8.880;2023-04-24T09:29:30;11.00;99.90
12634;DHT22;6382;48.614;8.880;2023-04-24T09:31:59;11.00;99.90
12634;DHT22;6382;48.614;8.880;2023-04-24T09:34:44;10.00;99.90
12634;DHT22;6382;48.614;8.880;2023-04-24T09:37:29;11.30;99.90
12634;DHT22;6382;48.614;8.880;2023-04-24T09:40:09;11.50;99.90
12634;DHT22;6382;48.614;8.880;2023-04-24T09:42:38;11.80;99.90
12634;DHT22;6382;48.614;8.880;2023-04-24T09:45:09;12.20;99.90
12634;DHT22;6382;48.614;8.880;2023-04-24T09:47:41;12.30;99.90
12634;DHT22;6382;48.614;8.880;2023-04-24T09:52:45;12.60;99.90
12634;DHT22;6382;48.614;8.880;2023-04-24T09:55:16;12.70;99.90
12634;DHT22;6382;48.614;8.880;2023-04-24T09:57:50;12.70;99.90
12634;DHT22;6382;48.614;8.880;2023-04-24T10:00:17;12.60;99.90
12634;DHT22;6382;48.614;8.880;2023-04-24T10:02:44;12.40;99.90
12634;DHT22;6382;48.614;8.880;2023-04-24T10:05:11;12.30;99.90
12634;DHT22;6382;48.614;8.880;2023-04-24T10:07:38;12.20;99.90
12634;DHT22;6382;48.614;8.880;2023-04-24T10:10:05;12.20;99.90
12634;DHT22;6382;48.614;8.880;2023-04-24T10:12:32;12.10;99.90
12634;DHT22;6382;48.614;8.880;2023-04-24T10:14:59;11.90;99.90
12634;DHT22;6382;48.614;8.880;2023-04-24T10:17:28;13.50;99.90
12634;DHT22;6382;48.614;8.880;2023-04-24T10:19:55;12.20;99.90
12634;DHT22;6382;48.614;8.880;2023-04-24T10:22:22;12.30;99.90
12634;DHT22;6382;48.614;8.880;2023-04-24T10:24:49;12.30;99.90
12634;DHT22;6382;48.614;8.880;2023-04-24T10:27:19;12.20;99.90
12634;DHT22;6382;48.614;8.880;2023-04-24T10:29:46;12.10;99.90
12634;DHT22;6382;48.614;8.880;2023-04-24T10:32:14;12.00;99.90
12634;DHT22;6382;48.614;8.880;2023-04-24T10:34:41;11.90;99.90
12634;DHT22;6382;48.614;8.880;2023-04-24T10:37:08;11.80;99.90
12634;DHT22;6382;48.614;8.880;2023-04-24T10:39:34;11.90;99.90
12634;DHT22;6382;48.614;8.880;2023-04-24T10:42:13;11.90;99.90
12634;DHT22;6382;48.614;8.880;2023-04-24T10:44:40;11.80;99.90
12634;DHT22;6382;48.614;8.880;2023-04-24T10:47:12;11.70;99.90
12634;DHT22;6382;48.614;8.880;2023-04-24T10:49:39;12.50;99.90
12634;DHT22;6382;48.614;8.880;2023-04-24T10:52:06;11.40;99.90
12634;DHT22;6382;48.614;8.880;2023-04-24T10:54:35;11.70;99.90
12634;DHT22;6382;48.614;8.880;2023-04-24T10:57:48;12.00;99.90
12634;DHT22;6382;48.614;8.880;2023-04-24T10:59:51;12.10;99.90
12634;DHT22;6382;48.614;8.880;2023-04-24T11:02:18;11.90;99.90
12634;DHT22;6382;48.614;8.880;2023-04-24T11:04:45;12.10;99.90
12634;DHT22;6382;48.614;8.880;2023-04-24T11:07:13;11.90;99.90
12634;DHT22;6382;48.614;8.880;2023-04-24T11:09:40;11.80;99.90
12634;DHT22;6382;48.614;8.880;2023-04-24T11:12:10;11.70;99.90
12634;DHT22;6382;48.614;8.880;2023-04-24T11:17:28;11.80;99.90
12634;DHT22;6382;48.614;8.880;2023-04-24T11:20:00;11.50;99.90
12634;DHT22;6382;48.614;8.880;2023-04-24T11:22:41;11.30;99.90
12634;DHT22;6382;48.614;8.880;2023-04-24T11:25:08;11.20;99.90
12634;DHT22;6382;48.614;8.880;2023-04-24T11:27:39;11.30;99.90
12634;DHT22;6382;48.614;8.880;2023-04-24T11:30:06;11.60;99.90
12634;DHT22;6382;48.614;8.880;2023-04-24T11:32:34;11.80;99.90
12634;DHT22;6382;48.614;8.880;2023-04-24T11:35:04;12.00;99.90
12634;DHT22;6382;48.614;8.880;2023-04-24T11:37:41;12.00;99.90
12634;DHT22;6382;48.614;8.880;2023-04-24T11:40:12;12.00;99.90
12634;DHT22;6382;48.614;8.880;2023-04-24T11:42:41;12.10;99.90
12634;DHT22;6382;48.614;8.880;2023-04-24T11:47:35;12.00;99.90
12634;DHT22;6382;48.614;8.880;2023-04-24T11:50:02;12.00;99.90
12634;DHT22;6382;48.614;8.880;2023-04-24T11:52:30;12.10;99.90
12634;DHT22;6382;48.614;8.880;2023-04-24T11:54:57;12.00;99.90
12634;DHT22;6382;48.614;8.880;2023-04-24T11:57:25;11.90;99.90
12634;DHT22;6382;48.614;8.880;2023-04-24T11:59:55;13.10;99.90
12634;DHT22;6382;48.614;8.880;2023-04-24T12:02:26;11.80;99.90
12634;DHT22;6382;48.614;8.880;2023-04-24T12:04:53;11.80;99.90
12634;DHT22;6382;48.614;8.880;2023-04-24T12:07:21;11.70;99.90
12634;DHT22;6382;48.614;8.880;2023-04-24T12:09:55;11.80;99.90
12634;DHT22;6382;48.614;8.880;2023-04-24T12:12:24;11.50;99.90
12634;DHT22;6382;48.614;8.880;2023-04-24T12:17:28;11.50;99.90
12634;DHT22;6382;48.614;8.880;2023-04-24T12:20:05;11.50;99.90
12634;DHT22;6382;48.614;8.880;2023-04-24T12:22:49;12.70;99.90
12634;DHT22;6382;48.614;8.880;2023-04-24T12:25:16;11.50;99.90
12634;DHT22;6382;48.614;8.880;2023-04-24T12:27:44;11.50;99.90
12634;DHT22;6382;48.614;8.880;2023-04-24T12:30:12;11.50;99.90
12634;DHT22;6382;48.614;8.880;2023-04-24T12:32:46;11.50;99.90
12634;DHT22;6382;48.614;8.880;2023-04-24T12:35:14;11.50;99.90
12634;DHT22;6382;48.614;8.880;2023-04-24T12:37:45;11.50;99.90
12634;DHT22;6382;48.614;8.880;2023-04-24T12:40:13;12.60;99.90
12634;DHT22;6382;48.614;8.880;2023-04-24T12:42:44;11.70;99.90
12634;DHT22;6382;48.614;8.880;2023-04-24T12:45:11;11.80;99.90
12634;DHT22;6382;48.614;8.880;2023-04-24T12:47:41;13.50;99.90
12634;DHT22;6382;48.614;8.880;2023-04-24T12:50:09;11.80;99.90
12634;DHT22;6382;48.614;8.880;2023-04-24T12:52:37;11.60;99.90
12634;DHT22;6382;48.614;8.880;2023-04-24T12:55:05;11.60;99.90
12634;DHT22;6382;48.614;8.880;2023-04-24T12:57:34;11.50;99.90
12634;DHT22;6382;48.614;8.880;2023-04-24T13:00:02;13.00;99.90
12634;DHT22;6382;48.614;8.880;2023-04-24T13:02:30;11.50;99.90
12634;DHT22;6382;48.614;8.880;2023-04-24T13:04:57;11.50;99.90
12634;DHT22;6382;48.614;8.880;2023-04-24T13:07:25;11.40;99.90
12634;DHT22;6382;48.614;8.880;2023-04-24T13:09:55;12.40;99.90
12634;DHT22;6382;48.614;8.880;2023-04-24T13:12:23;13.20;99.90
12634;DHT22;6382;48.614;8.880;2023-04-24T13:14:53;11.40;99.90
12634;DHT22;6382;48.614;8.880;2023-04-24T13:19:49;11.30;99.90
12634;DHT22;6382;48.614;8.880;2023-04-24T13:22:17;11.20;99.90
12634;DHT22;6382;48.614;8.880;2023-04-24T13:24:45;11.50;99.90
12634;DHT22;6382;48.614;8.880;2023-04-24T13:27:12;12.70;99.90
12634;DHT22;6382;48.614;8.880;2023-04-24T13:29:38;11.20;99.90
12634;DHT22;6382;48.614;8.880;2023-04-24T13:32:05;11.10;99.90
12634;DHT22;6382;48.614;8.880;2023-04-24T13:34:33;11.10;99.90
12634;DHT22;6382;48.614;8.880;2023-04-24T13:37:01;11.10;99.90
12634;DHT22;6382;48.614;8.880;2023-04-24T13:39:30;11.10;99.90
12634;DHT22;6382;48.614;8.880;2023-04-24T13:41:57;11.10;99.90
12634;DHT22;6382;48.614;8.880;2023-04-24T13:44:24;10.90;99.90
12634;DHT22;6382;48.614;8.880;2023-04-24T13:46:52;12.90;99.90
12634;DHT22;6382;48.614;8.880;2023-04-24T13:49:22;10.80;99.90
12634;DHT22;6382;48.614;8.880;2023-04-24T13:51:53;12.40;99.90
12634;DHT22;6382;48.614;8.880;2023-04-24T13:54:21;11.00;99.90
12634;DHT22;6382;48.614;8.880;2023-04-24T13:56:50;10.90;99.90
12634;DHT22;6382;48.614;8.880;2023-04-24T13:59:17;12.40;99.90
12634;DHT22;6382;48.614;8.880;2023-04-24T14:01:45;10.80;99.90
12634;DHT22;6382;48.614;8.880;2023-04-24T14:04:13;10.90;99.90
12634;DHT22;6382;48.614;8.880;2023-04-24T14:06:40;10.90;99.90
12634;DHT22;6382;48.614;8.880;2023-04-24T14:09:08;10.90;99.90
12634;DHT22;6382;48.614;8.880;2023-04-24T14:20:38;13.20;99.90
12634;DHT22;6382;48.614;8.880;2023-04-24T14:23:25;13.80;99.90
12634;DHT22;6382;48.614;8.880;2023-04-24T14:26:01;9.50;99.90
12634;DHT22;6382;48.614;8.880;2023-04-24T14:28:46;11.40;99.90
12634;DHT22;6382;48.614;8.880;2023-04-24T14:34:24;11.70;99.90
12634;DHT22;6382;48.614;8.880;2023-04-24T14:36:52;11.60;99.90
12634;DHT22;6382;48.614;8.880;2023-04-24T14:39:20;11.60;99.90
12634;DHT22;6382;48.614;8.880;2023-04-24T14:41:53;12.20;99.90
12634;DHT22;6382;48.614;8.880;2023-04-24T14:44:30;11.60;99.90
12634;DHT22;6382;48.614;8.880;2023-04-24T14:47:14;10.60;99.90
12634;DHT22;6382;48.614;8.880;2023-04-24T14:49:51;13.00;99.90
12634;DHT22;6382;48.614;8.880;2023-04-24T14:52:21;12.10;99.90
12634;DHT22;6382;48.614;8.880;2023-04-24T14:55:24;14.60;99.90
12634;DHT22;6382;48.614;8.880;2023-04-24T14:58:01;13.20;99.90
12634;DHT22;6382;48.614;8.880;2023-04-24T15:06:46;10.50;99.90
12634;DHT22;6382;48.614;8.880;2023-04-24T15:09:20;14.10;99.90
12634;DHT22;6382;48.614;8.880;2023-04-24T15:11:57;12.20;99.90
12634;DHT22;6382;48.614;8.880;2023-04-24T15:14:32;11.50;99.90
12634;DHT22;6382;48.614;8.880;2023-04-24T15:17:09;10.00;99.90
12634;DHT22;6382;48.614;8.880;2023-04-24T15:19:57;9.80;99.90
12634;DHT22;6382;48.614;8.880;2023-04-24T15:22:24;11.80;99.90
12634;DHT22;6382;48.614;8.880;2023-04-24T15:24:51;10.70;99.90
12634;DHT22;6382;48.614;8.880;2023-04-24T15:27:26;14.30;99.90
12634;DHT22;6382;48.614;8.880;2023-04-24T15:38:39;11.70;99.90
12634;DHT22;6382;48.614;8.880;2023-04-24T15:41:08;14.60;99.90
12634;DHT22;6382;48.614;8.880;2023-04-24T15:43:38;12.20;99.90
12634;DHT22;6382;48.614;8.880;2023-04-24T15:46:10;13.40;99.90
12634;DHT22;6382;48.614;8.880;2023-04-24T15:49:06;12.20;99.90
12634;DHT22;6382;48.614;8.880;2023-04-24T15:54:17;12.10;99.90
12634;DHT22;6382;48.614;8.880;2023-04-24T16:00:00;12.50;99.90
12634;DHT22;6382;48.614;8.880;2023-04-24T16:02:30;12.40;99.90
12634;DHT22;6382;48.614;8.880;2023-04-24T16:05:00;11.90;99.90
12634;DHT22;6382;48.614;8.880;2023-04-24T16:07:27;14.40;99.90
12634;DHT22;6382;48.614;8.880;2023-04-24T16:09:54;12.10;99.90
12634;DHT22;6382;48.614;8.880;2023-04-24T16:12:21;12.00;99.90
12634;DHT22;6382;48.614;8.880;2023-04-24T16:14:48;10.40;99.90
12634;DHT22;6382;48.614;8.880;2023-04-24T16:17:17;9.00;99.90
12634;DHT22;6382;48.614;8.880;2023-04-24T16:19:46;12.80;99.90
12634;DHT22;6382;48.614;8.880;2023-04-24T16:22:13;11.60;99.90
12634;DHT22;6382;48.614;8.880;2023-04-24T16:24:40;12.50;99.90
12634;DHT22;6382;48.614;8.880;2023-04-24T16:27:08;11.00;99.90
12634;DHT22;6382;48.614;8.880;2023-04-24T16:29:35;12.50;99.90
12634;DHT22;6382;48.614;8.880;2023-04-24T16:32:04;10.20;99.90
12634;DHT22;6382;48.614;8.880;2023-04-24T16:34:39;10.20;99.90
12634;DHT22;6382;48.614;8.880;2023-04-24T16:37:05;12.70;99.90
12634;DHT22;6382;48.614;8.880;2023-04-24T16:39:32;12.90;99.90
12634;DHT22;6382;48.614;8.880;2023-04-24T16:41:59;13.80;99.90
12634;DHT22;6382;48.614;8.880;2023-04-24T16:44:27;9.50;99.90
12634;DHT22;6382;48.614;8.880;2023-04-24T16:46:56;14.50;99.90
12634;DHT22;6382;48.614;8.880;2023-04-24T16:49:23;11.50;99.90